»·PEaware :: WAT169 KSNA-KSEA

WAT169 :: KSNA-KSEA

FLIGHT INFORMATION

Flight Status: Arrived
Operator:
Walker Air Transport
More flights by this operator :: More flights under this callsign
Pilot: Marty P. (27464)
Aircraft: AIRBUS A321
(A321)
More flights by this aircraft type
Origin: KSNA John Wayne-Orange Co
United States
Destination: KSEA Seattle-Tacoma Intl
United States
More flights between these airports :: More routes between these airports
Route: HHERO3 EHF SHIMR LKV HAWKZ7
File this flight plan on PilotEdge
Remarks:
Altitude:
(Current/Filed)
38,000ft
Speed:
(Current/Filed)
480kts
Departed: 31-Aug-21 11:19 AM
Arrived: 31-Aug-21 01:37 PM
Distance/Time
Traveled:
850nm/2:18
Distance/Time
To Go:
Arrived

Flight Plot

Page will automatically refresh every two minutes.

Flight plan parsing failed; only flown route is shown


Map Options




Map Legend


Flown Route
Filed Route
Departure Airport
Arrival Airport
Navaid (VOR, NDB)
Fix

Horizontal Profiles

Position Reports

Time Latitude Longitude Heading Altitude Ground
Speed
31-Aug-21 10:47 33.675020 -117.865109 118 65ft 0kts
31-Aug-21 10:48 33.675020 -117.865109 118 65ft 0kts
31-Aug-21 10:49 33.675020 -117.865109 118 65ft 0kts
31-Aug-21 10:50 33.675020 -117.865109 118 65ft 0kts
31-Aug-21 10:51 33.675020 -117.865109 118 65ft 0kts
31-Aug-21 10:52 33.675020 -117.865109 118 65ft 0kts
31-Aug-21 10:53 33.675020 -117.865109 118 65ft 0kts
31-Aug-21 10:54 33.675020 -117.865109 118 65ft 0kts
31-Aug-21 10:55 33.675020 -117.865109 118 65ft 0kts
31-Aug-21 10:56 33.675020 -117.865109 118 65ft 0kts
31-Aug-21 10:57 33.675020 -117.865109 118 65ft 0kts
31-Aug-21 10:58 33.675020 -117.865109 118 65ft 0kts
31-Aug-21 10:59 33.675020 -117.865109 118 65ft 0kts
31-Aug-21 11:00 33.675020 -117.865109 118 65ft 0kts
31-Aug-21 11:01 33.675020 -117.865109 118 65ft 0kts
31-Aug-21 11:02 33.675020 -117.865109 118 65ft 0kts
31-Aug-21 11:03 33.675020 -117.865110 118 65ft 0kts
31-Aug-21 11:04 33.675020 -117.865110 118 65ft 0kts
31-Aug-21 11:05 33.675020 -117.865110 118 65ft 0kts
31-Aug-21 11:06 33.675020 -117.865110 118 65ft 0kts
31-Aug-21 11:07 33.675042 -117.865158 118 65ft 2kts
31-Aug-21 11:08 33.675135 -117.865763 57 65ft 2kts
31-Aug-21 11:09 33.674957 -117.865942 27 65ft 0kts
31-Aug-21 11:10 33.674957 -117.865942 27 65ft 0kts
31-Aug-21 11:11 33.674957 -117.865942 27 65ft 0kts
31-Aug-21 11:12 33.674957 -117.865942 27 65ft 0kts
31-Aug-21 11:13 33.674957 -117.865942 27 65ft 0kts
31-Aug-21 11:14 33.674957 -117.865942 27 65ft 0kts
31-Aug-21 11:15 33.675087 -117.865861 27 65ft 3kts
31-Aug-21 11:16 33.677224 -117.864509 28 65ft 13kts
31-Aug-21 11:17 33.680502 -117.862875 319 65ft 10kts
31-Aug-21 11:18 33.679502 -117.866407 207 65ft 65kts
31-Aug-21 11:19 33.646068 -117.887562 207 1971ft 155kts
31-Aug-21 11:20 33.595542 -117.896726 185 3273ft 219kts
31-Aug-21 11:21 33.536932 -117.938171 224 5481ft 271kts
31-Aug-21 11:22 33.482617 -118.002165 231 6993ft 276kts
31-Aug-21 11:23 33.441727 -118.081845 240 9197ft 285kts
31-Aug-21 11:24 33.413042 -118.165677 280 11982ft 283kts
31-Aug-21 11:25 33.433322 -118.266578 284 13072ft 341kts
31-Aug-21 11:26 33.473714 -118.378012 298 14644ft 379kts
31-Aug-21 11:27 33.538017 -118.476181 340 16699ft 391kts
31-Aug-21 11:28 33.646096 -118.470769 8 17378ft 398kts
31-Aug-21 11:29 33.757136 -118.458551 1 19411ft 407kts
31-Aug-21 11:30 33.871939 -118.458946 0 21202ft 417kts
31-Aug-21 11:31 33.988797 -118.459597 359 22840ft 426kts
31-Aug-21 11:32 34.107724 -118.474929 353 24342ft 435kts
31-Aug-21 11:33 34.229636 -118.493742 353 25640ft 446kts
31-Aug-21 11:34 34.354218 -118.512951 353 26850ft 456kts
31-Aug-21 11:35 34.481125 -118.532578 353 27967ft 464kts
31-Aug-21 11:36 34.610037 -118.552636 353 28984ft 473kts
31-Aug-21 11:37 34.741400 -118.573186 353 30132ft 475kts
31-Aug-21 11:38 34.872260 -118.593827 352 31292ft 474kts
31-Aug-21 11:39 35.000146 -118.628307 337 32444ft 471kts
31-Aug-21 11:40 35.109765 -118.713077 318 33544ft 467kts
31-Aug-21 11:41 35.207828 -118.813585 318 34890ft 458kts
31-Aug-21 11:42 35.305823 -118.913659 318 35816ft 457kts
31-Aug-21 11:43 35.403275 -119.013440 318 37063ft 457kts
31-Aug-21 11:44 35.510005 -119.098889 334 37840ft 472kts
31-Aug-21 11:45 35.637064 -119.150729 343 37797ft 488kts
31-Aug-21 11:46 35.767375 -119.196008 343 37790ft 486kts
31-Aug-21 11:47 35.896942 -119.241726 343 37791ft 484kts
31-Aug-21 11:48 36.025867 -119.287431 343 37796ft 482kts
31-Aug-21 11:49 36.154598 -119.333156 343 37799ft 481kts
31-Aug-21 11:50 36.282791 -119.378789 343 37798ft 480kts
31-Aug-21 11:51 36.410949 -119.424690 343 37797ft 480kts
31-Aug-21 11:52 36.539262 -119.470812 343 37797ft 481kts
31-Aug-21 11:53 36.667710 -119.517151 343 37798ft 482kts
31-Aug-21 11:54 36.795843 -119.563542 343 37797ft 481kts
31-Aug-21 11:55 36.924422 -119.610250 343 37797ft 482kts
31-Aug-21 11:56 37.052937 -119.657150 342 37798ft 481kts
31-Aug-21 11:57 37.181398 -119.704487 342 37809ft 482kts
31-Aug-21 11:58 37.310097 -119.751733 342 37908ft 482kts
31-Aug-21 11:59 37.438486 -119.799035 342 37958ft 482kts
31-Aug-21 12:00 37.566832 -119.846519 342 37965ft 481kts
31-Aug-21 12:01 37.694566 -119.893937 342 37966ft 481kts
31-Aug-21 12:02 37.823145 -119.941866 342 37967ft 480kts
31-Aug-21 12:03 37.950839 -119.989668 342 37978ft 480kts
31-Aug-21 12:04 38.078660 -120.037773 341 37976ft 480kts
31-Aug-21 12:05 38.207214 -120.084480 345 37953ft 481kts
31-Aug-21 12:06 38.340073 -120.105656 354 37948ft 484kts
31-Aug-21 12:07 38.474076 -120.117337 354 37986ft 484kts
31-Aug-21 12:08 38.608596 -120.129533 353 37991ft 485kts
31-Aug-21 12:09 38.743193 -120.141858 353 37983ft 486kts
31-Aug-21 12:10 38.877955 -120.154257 353 37976ft 487kts
31-Aug-21 12:11 39.012941 -120.166729 352 37989ft 488kts
31-Aug-21 12:12 39.148682 -120.179296 352 38010ft 489kts
31-Aug-21 12:13 39.284153 -120.191841 351 38030ft 490kts
31-Aug-21 12:14 39.420566 -120.204592 351 38039ft 492kts
31-Aug-21 12:15 39.556832 -120.217387 351 38043ft 493kts
31-Aug-21 12:16 39.692894 -120.230214 351 38007ft 492kts
31-Aug-21 12:17 39.829792 -120.243181 351 37979ft 494kts
31-Aug-21 12:18 39.966330 -120.256150 351 37976ft 494kts
31-Aug-21 12:20 40.103501 -120.269209 351 37976ft 494kts
31-Aug-21 12:21 40.239954 -120.282179 350 37971ft 494kts
31-Aug-21 12:22 40.377112 -120.295343 350 37946ft 494kts
31-Aug-21 12:23 40.513903 -120.308548 350 37938ft 494kts
31-Aug-21 12:24 40.651139 -120.321841 350 37939ft 495kts
31-Aug-21 12:25 40.788218 -120.335181 349 37955ft 495kts
31-Aug-21 12:26 40.925105 -120.348564 349 37973ft 495kts
31-Aug-21 12:27 41.062211 -120.362027 349 37975ft 495kts
31-Aug-21 12:28 41.199402 -120.375481 348 37974ft 497kts
31-Aug-21 12:29 41.336731 -120.389024 348 37975ft 496kts
31-Aug-21 12:30 41.474530 -120.402744 348 37981ft 497kts
31-Aug-21 12:31 41.612123 -120.416499 348 37984ft 497kts
31-Aug-21 12:32 41.749885 -120.430348 348 37983ft 497kts
31-Aug-21 12:33 41.887602 -120.444255 348 37983ft 498kts
31-Aug-21 12:34 42.025258 -120.458226 347 37987ft 497kts
31-Aug-21 12:35 42.162105 -120.472061 347 38007ft 474kts
31-Aug-21 12:36 42.291582 -120.485492 346 38020ft 462kts
31-Aug-21 12:37 42.419386 -120.499264 345 38020ft 459kts
31-Aug-21 12:38 42.540801 -120.536291 330 38021ft 441kts
31-Aug-21 12:39 42.651687 -120.601463 326 38020ft 434kts
31-Aug-21 12:40 42.761586 -120.668654 325 38020ft 432kts
31-Aug-21 12:41 42.870429 -120.735440 325 38020ft 431kts
31-Aug-21 12:41 42.961517 -120.791255 325 38020ft 431kts
31-Aug-21 12:43 43.088960 -120.869578 325 38026ft 430kts
31-Aug-21 12:44 43.197954 -120.936515 325 38047ft 430kts
31-Aug-21 12:44 43.288283 -120.992376 325 38056ft 428kts
31-Aug-21 12:46 43.414689 -121.071006 325 38057ft 428kts
31-Aug-21 12:46 43.505080 -121.127486 325 38058ft 428kts
31-Aug-21 12:47 43.612905 -121.195135 325 38057ft 427kts
31-Aug-21 12:48 43.720785 -121.263234 325 38057ft 427kts
31-Aug-21 12:49 43.828463 -121.331060 325 38057ft 426kts
31-Aug-21 12:50 43.936049 -121.398939 325 38057ft 426kts
31-Aug-21 12:51 44.042924 -121.466887 325 38057ft 424kts
31-Aug-21 12:52 44.149663 -121.534957 325 38057ft 423kts
31-Aug-21 12:53 44.256433 -121.603221 325 38058ft 423kts
31-Aug-21 12:54 44.363085 -121.672023 324 38057ft 421kts
31-Aug-21 12:55 44.470973 -121.742275 325 38046ft 437kts
31-Aug-21 12:56 44.582978 -121.815092 325 38033ft 453kts
31-Aug-21 12:57 44.698261 -121.890175 325 38031ft 457kts
31-Aug-21 12:58 44.813409 -121.965610 325 38033ft 457kts
31-Aug-21 12:59 44.928077 -122.041143 326 38045ft 455kts
31-Aug-21 13:00 45.042772 -122.117032 326 38061ft 455kts
31-Aug-21 13:01 45.157038 -122.192840 326 38085ft 454kts
31-Aug-21 13:02 45.271237 -122.269186 326 38094ft 454kts
31-Aug-21 13:03 45.385627 -122.345393 326 38094ft 454kts
31-Aug-21 13:04 45.499813 -122.422227 326 38094ft 454kts
31-Aug-21 13:05 45.613623 -122.499508 326 38094ft 454kts
31-Aug-21 13:06 45.727593 -122.573240 332 36919ft 448kts
31-Aug-21 13:07 45.848754 -122.615542 342 34666ft 450kts
31-Aug-21 13:08 45.970452 -122.645765 343 32062ft 450kts
31-Aug-21 13:09 46.094036 -122.676861 345 29388ft 450kts
31-Aug-21 13:10 46.218155 -122.701371 347 26383ft 453kts
31-Aug-21 13:11 46.343569 -122.722221 353 23080ft 459kts
31-Aug-21 13:12 46.468672 -122.726607 353 20584ft 441kts
31-Aug-21 13:13 46.588889 -122.730996 353 18100ft 426kts
31-Aug-21 13:14 46.705209 -122.735468 354 15729ft 411kts
31-Aug-21 13:15 46.811918 -122.707838 34 14173ft 398kts
31-Aug-21 13:16 46.893974 -122.610669 33 12439ft 357kts
31-Aug-21 13:17 46.973588 -122.544627 10 11998ft 300kts
31-Aug-21 13:18 47.052800 -122.511395 10 12001ft 296kts
31-Aug-21 13:19 47.132612 -122.490019 1 11674ft 295kts
31-Aug-21 13:20 47.213631 -122.476055 2 10285ft 289kts
31-Aug-21 13:21 47.292909 -122.464185 3 8948ft 284kts
31-Aug-21 13:22 47.369016 -122.454767 358 8088ft 261kts
31-Aug-21 13:23 47.440756 -122.455095 358 6912ft 256kts
31-Aug-21 13:24 47.510787 -122.455195 358 6001ft 240kts
31-Aug-21 13:25 47.573807 -122.455544 358 5354ft 225kts
31-Aug-21 13:26 47.636317 -122.456149 358 4252ft 224kts
31-Aug-21 13:27 47.698500 -122.456798 358 3172ft 223kts
31-Aug-21 13:28 47.732216 -122.397818 93 3009ft 220kts
31-Aug-21 13:29 47.718068 -122.313592 146 3014ft 202kts
31-Aug-21 13:30 47.667093 -122.306073 182 3001ft 186kts
31-Aug-21 13:31 47.615277 -122.306928 180 3002ft 186kts
31-Aug-21 13:32 47.570076 -122.307175 180 2524ft 155kts
31-Aug-21 13:33 47.528525 -122.307437 180 1727ft 144kts
31-Aug-21 13:34 47.489222 -122.307681 181 971ft 139kts
31-Aug-21 13:35 47.452587 -122.307877 180 420ft 88kts
31-Aug-21 13:36 47.445276 -122.306331 177 393ft 10kts
31-Aug-21 13:37 47.440210 -122.306360 174 377ft 14kts
31-Aug-21 13:38 47.439239 -122.303476 140 376ft 4kts
31-Aug-21 13:39 47.439128 -122.303339 140 376ft 0kts
31-Aug-21 13:40 47.439128 -122.303339 140 376ft 0kts
31-Aug-21 13:41 47.439128 -122.303339 140 376ft 0kts
31-Aug-21 13:42 47.439128 -122.303339 140 376ft 0kts
31-Aug-21 13:43 47.439128 -122.303339 140 376ft 0kts
31-Aug-21 13:44 47.439128 -122.303339 140 376ft 0kts
31-Aug-21 13:45 47.439128 -122.303339 140 376ft 0kts

Navigation Log

Ident Type
Flight plan parsing failed, navigation log unavailable